Orlando, Florida
Traffic Map
Current Weather Conditions
Orlando, Florida
Clear
Clear
89°
Feels Like: 91°
Wind Chill: 89° Ceiling: Unl
Heat Index: 91° Visibility: 10mi
Dew Point: 66° Wind: 6mph
Humidity: 46% Direction: 20° (NNE)
Pressure: 30.11in Gusts: 0mph
Raw Report DataKORL 221553Z 02005KT 10SM CLR 32/19 A3011 RMK AO2 SLP198 T03170189
Traffic Incident Summary
Active as of:
Severity:
Category:
InformationThere was an issue retrieving the traffic information for this location. Please try a different location or try again shortly.
Advertisements
Track Severe Weather on mobile